PWSweather.com
Personal Weather Stations
Station Observations
KAZSIERR7
Canyon De Flores, Sierra Vista, AZ 85650

Canyon De FloresSierra Vista, AZ 85650

Lat: 31.5, Lon: -110.26

Elevation: 4645

Station Type: LaCrosse WS-3610 & Boltek Lightning Detector

http://www.lightningring.com/weather/

Latest ConditionsUpdated 11:18:51 AM MST Monday, May 30, 2016
Currently Today's Max Today's Min Today's Average
Temperature 81.0°F27.2°C 83.7°F28.7°C 61.2°F16.2°C 69.2°F20.7°C
Dew Point 41.8°F5.4°C 52.5°F11.4°C 38.4°F3.6°C 47.7°F8.7°C
Winds 1.1 mph SSW1.8 kmh SSW 7.7 mph SSW12.4 kmh SSW - 2.1 mph 3.4 kmh
Wind Gusts 10.0 mph16.1 kmh 29.5 mph47.5 kmh - -
Humidity 25% 65% 22% 48%
Pressure 30.07 in1018.3 mb 30.09 in1019.0 mb 30.06 in1017.9 mb -
Hour Temp Dew Point Humidity Winds Wind Gusts Pressure Precip Precip Rate Daily Precip Total
11:18 AM 81.0°F27.2°C 41.8°F5.4°C 25% 1.1 mph SSW1.8 kmh SSW 10.0 mph16.1 kmh 30.07 in1018.3 mb 0.00 in0.0 mm 0.00 in0.0 mm 0.00 in0.0 mm
11:13 AM 82.7°F28.2°C 40.0°F4.4°C 22% 2.7 mph SW4.3 kmh SW 10.5 mph16.9 kmh 30.07 in1018.3 mb 0.00 in0.0 mm 0.00 in0.0 mm 0.00 in0.0 mm
11:08 AM 82.6°F28.1°C 39.9°F4.4°C 22% 4.6 mph SSW7.4 kmh SSW 15.4 mph24.8 kmh 30.07 in1018.3 mb 0.00 in0.0 mm 0.00 in0.0 mm 0.00 in0.0 mm
11:03 AM 80.9°F27.2°C 38.4°F3.6°C 22% 4.6 mph SW7.4 kmh SW 20.1 mph32.3 kmh 30.06 in1017.9 mb 0.00 in0.0 mm 0.00 in0.0 mm 0.00 in0.0 mm
10:58 AM 81.0°F27.2°C 38.5°F3.6°C 22% 7.7 mph SSW12.4 kmh SSW 20.1 mph32.3 kmh 30.06 in1017.9 mb 0.00 in0.0 mm 0.00 in0.0 mm 0.00 in0.0 mm
10:52 AM 81.1°F27.3°C 38.6°F3.7°C 22% 3.5 mph SW5.6 kmh SW 16.3 mph26.2 kmh 30.07 in1018.3 mb 0.00 in0.0 mm 0.00 in0.0 mm 0.00 in0.0 mm
10:47 AM 80.0°F26.7°C 38.8°F3.8°C 23% 5.0 mph SW8.0 kmh SW 15.2 mph24.5 kmh 30.07 in1018.3 mb 0.00 in0.0 mm 0.00 in0.0 mm 0.00 in0.0 mm
10:42 AM 80.3°F26.8°C 41.2°F5.1°C 25% 4.2 mph SSW6.8 kmh SSW 12.3 mph19.8 kmh 30.07 in1018.3 mb 0.00 in0.0 mm 0.00 in0.0 mm 0.00 in0.0 mm
10:37 AM 80.5°F26.9°C 43.3°F6.3°C 27% 1.7 mph SW2.7 kmh SW 12.3 mph19.8 kmh 30.07 in1018.3 mb 0.00 in0.0 mm 0.00 in0.0 mm 0.00 in0.0 mm
10:31 AM 80.8°F27.1°C 41.6°F5.3°C 25% 1.0 mph SSW1.6 kmh SSW 4.4 mph7.1 kmh 30.07 in1018.3 mb 0.00 in0.0 mm 0.00 in0.0 mm 0.00 in0.0 mm
10:26 AM 83.7°F28.7°C 44.0°F6.7°C 25% 2.9 mph SSW4.7 kmh SSW 3.5 mph5.6 kmh 30.07 in1018.3 mb 0.00 in0.0 mm 0.00 in0.0 mm 0.00 in0.0 mm
10:21 AM 81.1°F27.3°C 44.8°F7.1°C 28% Calm Calm 4.6 mph7.4 kmh 30.07 in1018.3 mb 0.00 in0.0 mm 0.00 in0.0 mm 0.00 in0.0 mm
10:16 AM 78.9°F26.1°C 42.9°F6.1°C 28% 4.6 mph SW7.4 kmh SW 4.6 mph7.4 kmh 30.07 in1018.3 mb 0.00 in0.0 mm 0.00 in0.0 mm 0.00 in0.0 mm
10:10 AM 80.4°F26.9°C 44.2°F6.8°C 28% 3.8 mph WSW6.1 kmh WSW 3.8 mph6.1 kmh 30.07 in1018.3 mb 0.00 in0.0 mm 0.00 in0.0 mm 0.00 in0.0 mm
10:05 AM 77.5°F25.3°C 43.5°F6.4°C 30% 2.1 mph WSW3.4 kmh WSW 12.5 mph20.1 kmh 30.07 in1018.3 mb 0.00 in0.0 mm 0.00 in0.0 mm 0.00 in0.0 mm
10:00 AM 77.7°F25.4°C 44.5°F6.9°C 31% 1.7 mph S2.7 kmh S 18.5 mph29.8 kmh 30.07 in1018.3 mb 0.00 in0.0 mm 0.00 in0.0 mm 0.00 in0.0 mm
09:55 AM 77.8°F25.4°C 47.0°F8.3°C 34% 6.7 mph SSW10.8 kmh SSW 18.5 mph29.8 kmh 30.07 in1018.3 mb 0.00 in0.0 mm 0.00 in0.0 mm 0.00 in0.0 mm
09:49 AM 79.1°F26.2°C 48.2°F9.0°C 34% 3.5 mph SW5.6 kmh SW 11.8 mph19.0 kmh 30.07 in1018.3 mb 0.00 in0.0 mm 0.00 in0.0 mm 0.00 in0.0 mm
09:44 AM 79.8°F26.6°C 47.2°F8.4°C 32% 2.4 mph SSW3.9 kmh SSW 11.8 mph19.0 kmh 30.08 in1018.6 mb 0.00 in0.0 mm 0.00 in0.0 mm 0.00 in0.0 mm
09:39 AM 78.3°F25.7°C 49.0°F9.4°C 36% 4.4 mph SSE7.1 kmh SSE 4.6 mph7.4 kmh 30.07 in1018.3 mb 0.00 in0.0 mm 0.00 in0.0 mm 0.00 in0.0 mm
09:34 AM 77.4°F25.2°C 50.4°F10.2°C 39% 3.5 mph SE5.6 kmh SE 14.3 mph23.0 kmh 30.08 in1018.6 mb 0.00 in0.0 mm 0.00 in0.0 mm 0.00 in0.0 mm
09:28 AM 77.6°F25.3°C 49.9°F9.9°C 38% 5.2 mph SE8.4 kmh SE 14.3 mph23.0 kmh 30.08 in1018.6 mb 0.00 in0.0 mm 0.00 in0.0 mm 0.00 in0.0 mm
09:23 AM 77.7°F25.4°C 50.7°F10.4°C 39% 4.5 mph SE7.2 kmh SE 13.6 mph21.9 kmh 30.08 in1018.6 mb 0.00 in0.0 mm 0.00 in0.0 mm 0.00 in0.0 mm
09:18 AM 77.9°F25.5°C 49.4°F9.7°C 37% 4.8 mph SE7.7 kmh SE 17.4 mph28.0 kmh 30.07 in1018.3 mb 0.00 in0.0 mm 0.00 in0.0 mm 0.00 in0.0 mm
09:13 AM 77.8°F25.4°C 50.0°F10.0°C 38% 6.7 mph S10.8 kmh S 29.5 mph47.5 kmh 30.07 in1018.3 mb 0.00 in0.0 mm 0.00 in0.0 mm 0.00 in0.0 mm
09:07 AM 77.2°F25.1°C 51.6°F10.9°C 41% 4.3 mph SE6.9 kmh SE 29.5 mph47.5 kmh 30.08 in1018.6 mb 0.00 in0.0 mm 0.00 in0.0 mm 0.00 in0.0 mm
09:02 AM 76.5°F24.7°C 51.0°F10.6°C 41% 4.6 mph SE7.4 kmh SE 14.9 mph24.0 kmh 30.08 in1018.6 mb 0.00 in0.0 mm 0.00 in0.0 mm 0.00 in0.0 mm
08:57 AM 75.6°F24.2°C 50.8°F10.4°C 42% 7.1 mph SE11.4 kmh SE 17.0 mph27.4 kmh 30.08 in1018.6 mb 0.00 in0.0 mm 0.00 in0.0 mm 0.00 in0.0 mm
08:52 AM 75.3°F24.1°C 51.2°F10.7°C 43% 5.7 mph SE9.2 kmh SE 21.9 mph35.2 kmh 30.08 in1018.6 mb 0.00 in0.0 mm 0.00 in0.0 mm 0.00 in0.0 mm
08:46 AM 75.0°F23.9°C 51.6°F10.9°C 44% 5.8 mph SE9.3 kmh SE 21.9 mph35.2 kmh 30.08 in1018.6 mb 0.00 in0.0 mm 0.00 in0.0 mm 0.00 in0.0 mm
08:41 AM 74.5°F23.6°C 51.1°F10.6°C 44% 5.4 mph SSE8.7 kmh SSE 14.0 mph22.5 kmh 30.08 in1018.6 mb 0.00 in0.0 mm 0.00 in0.0 mm 0.00 in0.0 mm
08:36 AM 73.7°F23.2°C 51.0°F10.6°C 45% 5.1 mph SE8.2 kmh SE 12.0 mph19.3 kmh 30.08 in1018.6 mb 0.00 in0.0 mm 0.00 in0.0 mm 0.00 in0.0 mm
08:31 AM 73.2°F22.9°C 50.6°F10.3°C 45% 4.7 mph SE7.6 kmh SE 12.0 mph19.3 kmh 30.08 in1018.6 mb 0.00 in0.0 mm 0.00 in0.0 mm 0.00 in0.0 mm
08:25 AM 72.7°F22.6°C 51.3°F10.7°C 47% 5.5 mph ESE8.9 kmh ESE 12.0 mph19.3 kmh 30.08 in1018.6 mb 0.00 in0.0 mm 0.00 in0.0 mm 0.00 in0.0 mm
08:20 AM 72.4°F22.4°C 51.1°F10.6°C 47% 4.7 mph SE7.6 kmh SE 16.5 mph26.6 kmh 30.09 in1019.0 mb 0.00 in0.0 mm 0.00 in0.0 mm 0.00 in0.0 mm
08:15 AM 71.5°F21.9°C 50.8°F10.4°C 48% 4.6 mph S7.4 kmh S 16.5 mph26.6 kmh 30.09 in1019.0 mb 0.00 in0.0 mm 0.00 in0.0 mm 0.00 in0.0 mm
08:10 AM 69.9°F21.1°C 50.5°F10.3°C 50% 4.5 mph S7.2 kmh S 13.1 mph21.1 kmh 30.09 in1019.0 mb 0.00 in0.0 mm 0.00 in0.0 mm 0.00 in0.0 mm
08:05 AM 69.8°F21.0°C 51.5°F10.8°C 52% 5.8 mph SE9.3 kmh SE 13.1 mph21.1 kmh 30.09 in1019.0 mb 0.00 in0.0 mm 0.00 in0.0 mm 0.00 in0.0 mm
07:59 AM 70.5°F21.4°C 51.0°F10.6°C 50% 5.1 mph SE8.2 kmh SE 12.3 mph19.8 kmh 30.09 in1019.0 mb 0.00 in0.0 mm 0.00 in0.0 mm 0.00 in0.0 mm
07:54 AM 70.1°F21.2°C 51.2°F10.7°C 51% 5.1 mph ESE8.2 kmh ESE 10.5 mph16.9 kmh 30.08 in1018.6 mb 0.00 in0.0 mm 0.00 in0.0 mm 0.00 in0.0 mm
07:49 AM 69.4°F20.8°C 51.6°F10.9°C 53% 5.1 mph SE8.2 kmh SE 14.0 mph22.5 kmh 30.09 in1019.0 mb 0.00 in0.0 mm 0.00 in0.0 mm 0.00 in0.0 mm
07:44 AM 69.5°F20.8°C 51.7°F10.9°C 53% 5.5 mph SE8.9 kmh SE 14.0 mph22.5 kmh 30.09 in1019.0 mb 0.00 in0.0 mm 0.00 in0.0 mm 0.00 in0.0 mm
07:38 AM 69.5°F20.8°C 51.8°F11.0°C 53% 4.8 mph SE7.7 kmh SE 15.8 mph25.4 kmh 30.09 in1019.0 mb 0.00 in0.0 mm 0.00 in0.0 mm 0.00 in0.0 mm
07:33 AM 69.8°F21.0°C 52.0°F11.1°C 53% 4.2 mph ESE6.8 kmh ESE 15.8 mph25.4 kmh 30.09 in1019.0 mb 0.00 in0.0 mm 0.00 in0.0 mm 0.00 in0.0 mm
07:28 AM 70.5°F21.4°C 52.0°F11.1°C 52% 4.9 mph SSE7.9 kmh SSE 12.7 mph20.4 kmh 30.09 in1019.0 mb 0.00 in0.0 mm 0.00 in0.0 mm 0.00 in0.0 mm
07:23 AM 70.9°F21.6°C 52.3°F11.3°C 52% 3.2 mph SE5.1 kmh SE 8.9 mph14.3 kmh 30.09 in1019.0 mb 0.00 in0.0 mm 0.00 in0.0 mm 0.00 in0.0 mm
07:17 AM 71.2°F21.8°C 52.5°F11.4°C 52% 3.3 mph E5.3 kmh E 3.3 mph5.3 kmh 30.09 in1019.0 mb 0.00 in0.0 mm 0.00 in0.0 mm 0.00 in0.0 mm
07:12 AM 70.3°F21.3°C 51.8°F11.0°C 52% 2.2 mph ESE3.5 kmh ESE 3.8 mph6.1 kmh 30.09 in1019.0 mb 0.00 in0.0 mm 0.00 in0.0 mm 0.00 in0.0 mm
07:07 AM 71.1°F21.7°C 52.0°F11.1°C 51% 1.3 mph NE2.1 kmh NE 3.8 mph6.1 kmh 30.09 in1019.0 mb 0.00 in0.0 mm 0.00 in0.0 mm 0.00 in0.0 mm
07:02 AM 70.2°F21.2°C 52.2°F11.2°C 53% 3.8 mph NE6.1 kmh NE 3.8 mph6.1 kmh 30.09 in1019.0 mb 0.00 in0.0 mm 0.00 in0.0 mm 0.00 in0.0 mm
06:56 AM 71.2°F21.8°C 52.2°F11.2°C 51% 2.4 mph NE3.9 kmh NE 2.4 mph3.9 kmh 30.09 in1019.0 mb 0.00 in0.0 mm 0.00 in0.0 mm 0.00 in0.0 mm
06:51 AM 70.9°F21.6°C 52.3°F11.3°C 52% Calm Calm -- 30.09 in1019.0 mb 0.00 in0.0 mm 0.00 in0.0 mm 0.00 in0.0 mm
06:46 AM 70.5°F21.4°C 52.0°F11.1°C 52% Calm Calm -- 30.09 in1019.0 mb 0.00 in0.0 mm 0.00 in0.0 mm 0.00 in0.0 mm
06:41 AM 69.4°F20.8°C 52.0°F11.1°C 54% Calm Calm -- 30.08 in1018.6 mb 0.00 in0.0 mm 0.00 in0.0 mm 0.00 in0.0 mm
06:35 AM 67.6°F19.8°C 51.8°F11.0°C 57% Calm Calm 0.4 mph0.6 kmh 30.08 in1018.6 mb 0.00 in0.0 mm 0.00 in0.0 mm 0.00 in0.0 mm
06:30 AM 66.6°F19.2°C 51.3°F10.7°C 58% 0.4 mph NW0.6 kmh NW 0.4 mph0.6 kmh 30.09 in1019.0 mb 0.00 in0.0 mm 0.00 in0.0 mm 0.00 in0.0 mm
06:25 AM 66.4°F19.1°C 51.1°F10.6°C 58% Calm Calm -- 30.09 in1019.0 mb 0.00 in0.0 mm 0.00 in0.0 mm 0.00 in0.0 mm
06:20 AM 65.5°F18.6°C 51.3°F10.7°C 60% Calm Calm -- 30.09 in1019.0 mb 0.00 in0.0 mm 0.00 in0.0 mm 0.00 in0.0 mm
06:14 AM 64.9°F18.3°C 50.7°F10.4°C 60% Calm Calm -- 30.09 in1019.0 mb 0.00 in0.0 mm 0.00 in0.0 mm 0.00 in0.0 mm
06:09 AM 64.4°F18.0°C 50.2°F10.1°C 60% Calm Calm -- 30.09 in1019.0 mb 0.00 in0.0 mm 0.00 in0.0 mm 0.00 in0.0 mm
06:04 AM 64.0°F17.8°C 50.2°F10.1°C 61% Calm Calm 2.2 mph3.5 kmh 30.09 in1019.0 mb 0.00 in0.0 mm 0.00 in0.0 mm 0.00 in0.0 mm
05:59 AM 63.1°F17.3°C 50.2°F10.1°C 63% Calm Calm 2.2 mph3.5 kmh 30.09 in1019.0 mb 0.00 in0.0 mm 0.00 in0.0 mm 0.00 in0.0 mm
05:53 AM 61.9°F16.6°C 49.5°F9.7°C 64% 2.2 mph WNW3.5 kmh WNW 2.2 mph3.5 kmh 30.09 in1019.0 mb 0.00 in0.0 mm 0.00 in0.0 mm 0.00 in0.0 mm
05:48 AM 61.2°F16.2°C 49.3°F9.6°C 65% Calm Calm -- 30.09 in1019.0 mb 0.00 in0.0 mm 0.00 in0.0 mm 0.00 in0.0 mm
05:43 AM 61.2°F16.2°C 49.3°F9.6°C 65% Calm Calm -- 30.09 in1019.0 mb 0.00 in0.0 mm 0.00 in0.0 mm 0.00 in0.0 mm
05:38 AM 61.2°F16.2°C 49.3°F9.6°C 65% Calm Calm 7.6 mph12.2 kmh 30.08 in1018.6 mb 0.00 in0.0 mm 0.00 in0.0 mm 0.00 in0.0 mm
05:32 AM 61.5°F16.4°C 49.1°F9.5°C 64% 1.1 mph W1.8 kmh W 7.6 mph12.2 kmh 30.09 in1019.0 mb 0.00 in0.0 mm 0.00 in0.0 mm 0.00 in0.0 mm
05:27 AM 61.7°F16.5°C 48.9°F9.4°C 63% Calm Calm -- 30.08 in1018.6 mb 0.00 in0.0 mm 0.00 in0.0 mm 0.00 in0.0 mm
05:22 AM 61.9°F16.6°C 48.7°F9.3°C 62% Calm Calm -- 30.09 in1019.0 mb 0.00 in0.0 mm 0.00 in0.0 mm 0.00 in0.0 mm
05:17 AM 62.4°F16.9°C 49.1°F9.5°C 62% Calm Calm 2.4 mph3.9 kmh 30.09 in1019.0 mb 0.00 in0.0 mm 0.00 in0.0 mm 0.00 in0.0 mm
05:11 AM 63.0°F17.2°C 49.6°F9.8°C 62% 0.8 mph ESE1.3 kmh ESE 2.4 mph3.9 kmh 30.08 in1018.6 mb 0.00 in0.0 mm 0.00 in0.0 mm 0.00 in0.0 mm
05:06 AM 62.8°F17.1°C 49.5°F9.7°C 62% Calm Calm 1.1 mph1.8 kmh 30.08 in1018.6 mb 0.00 in0.0 mm 0.00 in0.0 mm 0.00 in0.0 mm
05:01 AM 62.4°F16.9°C 49.6°F9.8°C 63% 1.1 mph NE1.8 kmh NE 4.6 mph7.4 kmh 30.08 in1018.6 mb 0.00 in0.0 mm 0.00 in0.0 mm 0.00 in0.0 mm
04:55 AM 62.2°F16.8°C 49.5°F9.7°C 63% 4.6 mph S7.4 kmh S 4.6 mph7.4 kmh 30.08 in1018.6 mb 0.00 in0.0 mm 0.00 in0.0 mm 0.00 in0.0 mm
04:50 AM 61.9°F16.6°C 49.1°F9.5°C 63% Calm Calm -- 30.08 in1018.6 mb 0.00 in0.0 mm 0.00 in0.0 mm 0.00 in0.0 mm
04:45 AM 61.2°F16.2°C 48.4°F9.1°C 65% Calm Calm -- 30.08 in1018.6 mb 0.00 in0.0 mm 0.00 in0.0 mm 0.00 in0.0 mm
04:40 AM 61.2°F16.2°C 48.4°F9.1°C 63% Calm Calm -- 30.08 in1018.6 mb 0.00 in0.0 mm 0.00 in0.0 mm 0.00 in0.0 mm
04:34 AM 62.1°F16.7°C 48.7°F9.3°C 62% Calm Calm -- 30.08 in1018.6 mb 0.00 in0.0 mm 0.00 in0.0 mm 0.00 in0.0 mm
04:29 AM 62.4°F16.9°C 48.7°F9.3°C 61% Calm Calm -- 30.08 in1018.6 mb 0.00 in0.0 mm 0.00 in0.0 mm 0.00 in0.0 mm
04:24 AM 63.1°F17.3°C 49.5°F9.7°C 61% Calm Calm -- 30.08 in1018.6 mb 0.00 in0.0 mm 0.00 in0.0 mm 0.00 in0.0 mm
04:19 AM 63.0°F17.2°C 49.6°F9.8°C 62% Calm Calm -- 30.08 in1018.6 mb 0.00 in0.0 mm 0.00 in0.0 mm 0.00 in0.0 mm
04:13 AM 63.3°F17.4°C 49.1°F9.5°C 60% Calm Calm -- 30.08 in1018.6 mb 0.00 in0.0 mm 0.00 in0.0 mm 0.00 in0.0 mm
04:08 AM 64.0°F17.8°C 49.8°F9.9°C 60% Calm Calm -- 30.08 in1018.6 mb 0.00 in0.0 mm 0.00 in0.0 mm 0.00 in0.0 mm
04:02 AM 64.2°F17.9°C 50.0°F10.0°C 60% Calm Calm 2.2 mph3.5 kmh 30.08 in1018.6 mb 0.00 in0.0 mm 0.00 in0.0 mm 0.00 in0.0 mm
03:57 AM 65.1°F18.4°C 50.4°F10.2°C 59% 2.2 mph S3.5 kmh S 2.2 mph3.5 kmh 30.08 in1018.6 mb 0.00 in0.0 mm 0.00 in0.0 mm 0.00 in0.0 mm
03:52 AM 65.3°F18.5°C 50.0°F10.0°C 58% 1.5 mph SSW2.4 kmh SSW 8.2 mph13.2 kmh 30.08 in1018.6 mb 0.00 in0.0 mm 0.00 in0.0 mm 0.00 in0.0 mm
03:47 AM 65.5°F18.6°C 50.2°F10.1°C 58% 1.6 mph S2.6 kmh S 8.2 mph13.2 kmh 30.07 in1018.3 mb 0.00 in0.0 mm 0.00 in0.0 mm 0.00 in0.0 mm
03:41 AM 65.5°F18.6°C 50.2°F10.1°C 58% 2.4 mph S3.9 kmh S 2.6 mph4.2 kmh 30.08 in1018.6 mb 0.00 in0.0 mm 0.00 in0.0 mm 0.00 in0.0 mm
03:36 AM 65.1°F18.4°C 49.8°F9.9°C 58% Calm Calm 2.6 mph4.2 kmh 30.08 in1018.6 mb 0.00 in0.0 mm 0.00 in0.0 mm 0.00 in0.0 mm
03:31 AM 65.3°F18.5°C 49.5°F9.7°C 58% 2.1 mph SSW3.4 kmh SSW 2.9 mph4.7 kmh 30.08 in1018.6 mb 0.00 in0.0 mm 0.00 in0.0 mm 0.00 in0.0 mm
03:26 AM 65.8°F18.8°C 49.6°F9.8°C 57% 1.9 mph S3.1 kmh S 3.1 mph5.0 kmh 30.08 in1018.6 mb 0.00 in0.0 mm 0.00 in0.0 mm 0.00 in0.0 mm
03:20 AM 65.7°F18.7°C 49.5°F9.7°C 56% 2.6 mph S4.2 kmh S 3.1 mph5.0 kmh 30.08 in1018.6 mb 0.00 in0.0 mm 0.00 in0.0 mm 0.00 in0.0 mm
03:15 AM 65.5°F18.6°C 49.6°F9.8°C 57% Calm Calm 2.4 mph3.9 kmh 30.07 in1018.3 mb 0.00 in0.0 mm 0.00 in0.0 mm 0.00 in0.0 mm
03:10 AM 65.3°F18.5°C 50.0°F10.0°C 58% 1.9 mph S3.1 kmh S 2.2 mph3.5 kmh 30.08 in1018.6 mb 0.00 in0.0 mm 0.00 in0.0 mm 0.00 in0.0 mm
03:05 AM 64.9°F18.3°C 49.6°F9.8°C 59% Calm Calm -- 30.08 in1018.6 mb 0.00 in0.0 mm 0.00 in0.0 mm 0.00 in0.0 mm
02:59 AM 65.1°F18.4°C 49.3°F9.6°C 58% Calm Calm -- 30.07 in1018.3 mb 0.00 in0.0 mm 0.00 in0.0 mm 0.00 in0.0 mm
02:54 AM 65.3°F18.5°C 49.5°F9.7°C 57% Calm Calm 2.9 mph4.7 kmh 30.07 in1018.3 mb 0.00 in0.0 mm 0.00 in0.0 mm 0.00 in0.0 mm
02:49 AM 65.5°F18.6°C 49.6°F9.8°C 57% 2.2 mph SSW3.5 kmh SSW 2.9 mph4.7 kmh 30.07 in1018.3 mb 0.00 in0.0 mm 0.00 in0.0 mm 0.00 in0.0 mm
02:44 AM 64.9°F18.3°C 48.7°F9.3°C 56% 2.9 mph SSW4.7 kmh SSW 2.9 mph4.7 kmh 30.07 in1018.3 mb 0.00 in0.0 mm 0.00 in0.0 mm 0.00 in0.0 mm
02:38 AM 63.9°F17.7°C 45.7°F7.6°C 55% 0.6 mph SW1.0 kmh SW 0.6 mph1.0 kmh 30.07 in1018.3 mb 0.00 in0.0 mm 0.00 in0.0 mm 0.00 in0.0 mm
02:33 AM 64.0°F17.8°C 45.3°F7.4°C 51% Calm Calm 1.5 mph2.4 kmh 30.07 in1018.3 mb 0.00 in0.0 mm 0.00 in0.0 mm 0.00 in0.0 mm
02:28 AM 64.2°F17.9°C 45.1°F7.3°C 50% 1.5 mph SSW2.4 kmh SSW 1.5 mph2.4 kmh 30.07 in1018.3 mb 0.00 in0.0 mm 0.00 in0.0 mm 0.00 in0.0 mm
02:23 AM 64.0°F17.8°C 44.4°F6.9°C 49% Calm Calm -- 30.07 in1018.3 mb 0.00 in0.0 mm 0.00 in0.0 mm 0.00 in0.0 mm
02:17 AM 64.4°F18.0°C 44.1°F6.7°C 48% Calm Calm 0.4 mph0.6 kmh 30.07 in1018.3 mb 0.00 in0.0 mm 0.00 in0.0 mm 0.00 in0.0 mm
02:12 AM 64.2°F17.9°C 43.9°F6.6°C 48% 0.4 mph S0.6 kmh S 0.4 mph0.6 kmh 30.07 in1018.3 mb 0.00 in0.0 mm 0.00 in0.0 mm 0.00 in0.0 mm
02:07 AM 64.6°F18.1°C 43.7°F6.5°C 47% Calm Calm -- 30.07 in1018.3 mb 0.00 in0.0 mm 0.00 in0.0 mm 0.00 in0.0 mm
02:02 AM 64.9°F18.3°C 43.5°F6.4°C 47% Calm Calm -- 30.07 in1018.3 mb 0.00 in0.0 mm 0.00 in0.0 mm 0.00 in0.0 mm
01:56 AM 65.1°F18.4°C 43.7°F6.5°C 46% Calm Calm -- 30.07 in1018.3 mb 0.00 in0.0 mm 0.00 in0.0 mm 0.00 in0.0 mm
01:51 AM 65.1°F18.4°C 43.7°F6.5°C 46% Calm Calm -- 30.07 in1018.3 mb 0.00 in0.0 mm 0.00 in0.0 mm 0.00 in0.0 mm
01:46 AM 65.5°F18.6°C 43.9°F6.6°C 46% Calm Calm -- 30.07 in1018.3 mb 0.00 in0.0 mm 0.00 in0.0 mm 0.00 in0.0 mm
01:41 AM 66.0°F18.9°C 43.9°F6.6°C 45% Calm Calm 2.0 mph3.2 kmh 30.07 in1018.3 mb 0.00 in0.0 mm 0.00 in0.0 mm 0.00 in0.0 mm
01:35 AM 66.7°F19.3°C 43.3°F6.3°C 45% 2.0 mph S3.2 kmh S 2.0 mph3.2 kmh 30.07 in1018.3 mb 0.00 in0.0 mm 0.00 in0.0 mm 0.00 in0.0 mm
01:30 AM 66.7°F19.3°C 43.3°F6.3°C 43% Calm Calm 4.4 mph7.1 kmh 30.08 in1018.6 mb 0.00 in0.0 mm 0.00 in0.0 mm 0.00 in0.0 mm
01:25 AM 67.6°F19.8°C 44.2°F6.8°C 43% 4.4 mph SSE7.1 kmh SSE 4.4 mph7.1 kmh 30.08 in1018.6 mb 0.00 in0.0 mm 0.00 in0.0 mm 0.00 in0.0 mm
01:20 AM 67.6°F19.8°C 44.8°F7.1°C 42% 1.7 mph SSW2.7 kmh SSW 1.7 mph2.7 kmh 30.07 in1018.3 mb 0.00 in0.0 mm 0.00 in0.0 mm 0.00 in0.0 mm
01:14 AM 67.6°F19.8°C 44.8°F7.1°C 44% 1.5 mph SW2.4 kmh SW 2.9 mph4.7 kmh 30.08 in1018.6 mb 0.00 in0.0 mm 0.00 in0.0 mm 0.00 in0.0 mm
01:09 AM 66.7°F19.3°C 43.3°F6.3°C 43% Calm Calm 2.9 mph4.7 kmh 30.08 in1018.6 mb 0.00 in0.0 mm 0.00 in0.0 mm 0.00 in0.0 mm
01:04 AM 66.7°F19.3°C 43.3°F6.3°C 43% 2.9 mph WSW4.7 kmh WSW 2.9 mph4.7 kmh 30.08 in1018.6 mb 0.00 in0.0 mm 0.00 in0.0 mm 0.00 in0.0 mm
12:59 AM 66.7°F19.3°C 42.8°F6.0°C 42% Calm Calm -- 30.08 in1018.6 mb 0.00 in0.0 mm 0.00 in0.0 mm 0.00 in0.0 mm
12:54 AM 66.9°F19.4°C 43.0°F6.1°C 43% Calm Calm 2.4 mph3.9 kmh 30.08 in1018.6 mb 0.00 in0.0 mm 0.00 in0.0 mm 0.00 in0.0 mm
12:48 AM 66.7°F19.3°C 43.3°F6.3°C 43% 0.6 mph WSW1.0 kmh WSW 2.4 mph3.9 kmh 30.08 in1018.6 mb 0.00 in0.0 mm 0.00 in0.0 mm 0.00 in0.0 mm
12:43 AM 66.7°F19.3°C 43.3°F6.3°C 43% 2.4 mph WSW3.9 kmh WSW 2.4 mph3.9 kmh 30.08 in1018.6 mb 0.00 in0.0 mm 0.00 in0.0 mm 0.00 in0.0 mm
12:38 AM 66.9°F19.4°C 43.5°F6.4°C 43% 1.7 mph W2.7 kmh W 1.7 mph2.7 kmh 30.08 in1018.6 mb 0.00 in0.0 mm 0.00 in0.0 mm 0.00 in0.0 mm
12:33 AM 67.5°F19.7°C 44.1°F6.7°C 43% 1.1 mph WSW1.8 kmh WSW 1.7 mph2.7 kmh 30.09 in1019.0 mb 0.00 in0.0 mm 0.00 in0.0 mm 0.00 in0.0 mm
12:27 AM 67.3°F19.6°C 44.4°F6.9°C 44% 1.7 mph WSW2.7 kmh WSW 1.7 mph2.7 kmh 30.08 in1018.6 mb 0.00 in0.0 mm 0.00 in0.0 mm 0.00 in0.0 mm
12:22 AM 66.9°F19.4°C 44.1°F6.7°C 43% Calm Calm 0.8 mph1.3 kmh 30.08 in1018.6 mb 0.00 in0.0 mm 0.00 in0.0 mm 0.00 in0.0 mm
12:17 AM 66.9°F19.4°C 44.1°F6.7°C 44% 0.8 mph WSW1.3 kmh WSW 0.8 mph1.3 kmh 30.08 in1018.6 mb 0.00 in0.0 mm 0.00 in0.0 mm 0.00 in0.0 mm
12:12 AM 66.9°F19.4°C 43.5°F6.4°C 43% Calm Calm 0.8 mph1.3 kmh 30.09 in1019.0 mb 0.00 in0.0 mm 0.00 in0.0 mm 0.00 in0.0 mm
12:06 AM 66.9°F19.4°C 43.5°F6.4°C 44% 0.8 mph WSW1.3 kmh WSW 0.8 mph1.3 kmh 30.09 in1019.0 mb 0.00 in0.0 mm 0.00 in0.0 mm 0.00 in0.0 mm
12:01 AM 67.1°F19.5°C 43.7°F6.5°C 43% Calm Calm -- 30.08 in1018.6 mb 0.00 in0.0 mm 0.00 in0.0 mm 0.00 in0.0 mm